sensor_id;sensor_type;location;lat;lon;timestamp;temperature;humidity
8172;DHT22;4127;47.908;10.850;2022-09-09T00:04:39;14.00;99.90
8172;DHT22;4127;47.908;10.850;2022-09-09T00:12:54;14.10;99.90
8172;DHT22;4127;47.908;10.850;2022-09-09T00:15:42;14.20;99.90
8172;DHT22;4127;47.908;10.850;2022-09-09T00:21:15;14.20;99.90
8172;DHT22;4127;47.908;10.850;2022-09-09T00:24:04;14.10;99.90
8172;DHT22;4127;47.908;10.850;2022-09-09T00:26:40;14.10;99.90
8172;DHT22;4127;47.908;10.850;2022-09-09T00:29:22;15.20;99.90
8172;DHT22;4127;47.908;10.850;2022-09-09T00:31:57;14.10;99.90
8172;DHT22;4127;47.908;10.850;2022-09-09T00:34:28;14.10;99.90
8172;DHT22;4127;47.908;10.850;2022-09-09T00:36:56;14.20;99.90
8172;DHT22;4127;47.908;10.850;2022-09-09T00:39:31;14.20;99.90
8172;DHT22;4127;47.908;10.850;2022-09-09T00:42:25;14.20;99.90
8172;DHT22;4127;47.908;10.850;2022-09-09T00:44:58;14.20;99.90
8172;DHT22;4127;47.908;10.850;2022-09-09T00:53:13;14.30;99.90
8172;DHT22;4127;47.908;10.850;2022-09-09T00:55:49;14.30;99.90
8172;DHT22;4127;47.908;10.850;2022-09-09T00:58:20;14.20;99.90
8172;DHT22;4127;47.908;10.850;2022-09-09T01:01:04;14.10;99.90
8172;DHT22;4127;47.908;10.850;2022-09-09T01:03:55;14.10;99.90
8172;DHT22;4127;47.908;10.850;2022-09-09T01:06:36;14.10;99.90
8172;DHT22;4127;47.908;10.850;2022-09-09T01:12:01;14.10;99.90
8172;DHT22;4127;47.908;10.850;2022-09-09T01:14:38;14.10;99.90
8172;DHT22;4127;47.908;10.850;2022-09-09T01:17:21;14.10;99.90
8172;DHT22;4127;47.908;10.850;2022-09-09T01:20:01;14.10;99.90
8172;DHT22;4127;47.908;10.850;2022-09-09T01:25:22;14.10;99.90
8172;DHT22;4127;47.908;10.850;2022-09-09T01:28:02;14.00;99.90
8172;DHT22;4127;47.908;10.850;2022-09-09T01:30:33;13.90;99.90
8172;DHT22;4127;47.908;10.850;2022-09-09T01:33:00;13.90;99.90
8172;DHT22;4127;47.908;10.850;2022-09-09T01:38:01;13.80;99.90
8172;DHT22;4127;47.908;10.850;2022-09-09T01:40:28;13.70;99.90
8172;DHT22;4127;47.908;10.850;2022-09-09T01:42:55;13.70;99.90
8172;DHT22;4127;47.908;10.850;2022-09-09T01:45:23;13.60;99.90
8172;DHT22;4127;47.908;10.850;2022-09-09T01:47:52;13.60;99.90
8172;DHT22;4127;47.908;10.850;2022-09-09T01:50:19;13.70;99.90
8172;DHT22;4127;47.908;10.850;2022-09-09T01:52:51;13.70;99.90
8172;DHT22;4127;47.908;10.850;2022-09-09T01:55:24;13.50;99.90
8172;DHT22;4127;47.908;10.850;2022-09-09T02:00:45;13.60;99.90
8172;DHT22;4127;47.908;10.850;2022-09-09T02:03:22;13.40;99.90
8172;DHT22;4127;47.908;10.850;2022-09-09T02:06:21;13.40;99.90
8172;DHT22;4127;47.908;10.850;2022-09-09T02:08:54;13.30;99.90
8172;DHT22;4127;47.908;10.850;2022-09-09T02:11:23;13.30;99.90
8172;DHT22;4127;47.908;10.850;2022-09-09T02:14:00;13.30;99.90
8172;DHT22;4127;47.908;10.850;2022-09-09T02:16:39;13.30;99.90
8172;DHT22;4127;47.908;10.850;2022-09-09T02:19:17;13.40;99.90
8172;DHT22;4127;47.908;10.850;2022-09-09T02:21:48;13.30;99.90
8172;DHT22;4127;47.908;10.850;2022-09-09T02:24:15;13.40;99.90
8172;DHT22;4127;47.908;10.850;2022-09-09T02:26:44;13.30;99.90
8172;DHT22;4127;47.908;10.850;2022-09-09T02:29:16;13.30;99.90
8172;DHT22;4127;47.908;10.850;2022-09-09T02:31:46;13.40;99.90
8172;DHT22;4127;47.908;10.850;2022-09-09T02:34:14;13.30;99.90
8172;DHT22;4127;47.908;10.850;2022-09-09T02:36:43;13.30;99.90
8172;DHT22;4127;47.908;10.850;2022-09-09T02:39:11;13.20;99.90
8172;DHT22;4127;47.908;10.850;2022-09-09T02:41:40;13.30;99.90
8172;DHT22;4127;47.908;10.850;2022-09-09T02:44:12;13.10;99.90
8172;DHT22;4127;47.908;10.850;2022-09-09T02:50:12;13.10;99.90
8172;DHT22;4127;47.908;10.850;2022-09-09T02:55:46;13.10;99.90
8172;DHT22;4127;47.908;10.850;2022-09-09T02:58:17;13.20;99.90
8172;DHT22;4127;47.908;10.850;2022-09-09T03:00:48;13.20;99.90
8172;DHT22;4127;47.908;10.850;2022-09-09T03:03:16;13.30;99.90
8172;DHT22;4127;47.908;10.850;2022-09-09T03:05:45;13.20;99.90
8172;DHT22;4127;47.908;10.850;2022-09-09T03:08:12;13.30;99.90
8172;DHT22;4127;47.908;10.850;2022-09-09T03:10:39;13.40;99.90
8172;DHT22;4127;47.908;10.850;2022-09-09T03:13:07;13.50;99.90
8172;DHT22;4127;47.908;10.850;2022-09-09T03:15:34;13.30;99.90
8172;DHT22;4127;47.908;10.850;2022-09-09T03:18:01;13.40;99.90
8172;DHT22;4127;47.908;10.850;2022-09-09T03:20:29;13.50;99.90
8172;DHT22;4127;47.908;10.850;2022-09-09T03:22:56;13.40;99.90
8172;DHT22;4127;47.908;10.850;2022-09-09T03:25:23;13.40;99.90
8172;DHT22;4127;47.908;10.850;2022-09-09T03:27:50;13.40;99.90
8172;DHT22;4127;47.908;10.850;2022-09-09T03:30:22;13.20;99.90
8172;DHT22;4127;47.908;10.850;2022-09-09T03:32:49;13.10;99.90
8172;DHT22;4127;47.908;10.850;2022-09-09T03:35:16;13.00;99.90
8172;DHT22;4127;47.908;10.850;2022-09-09T03:37:43;13.00;99.90
8172;DHT22;4127;47.908;10.850;2022-09-09T03:40:10;13.20;99.90
8172;DHT22;4127;47.908;10.850;2022-09-09T03:42:38;12.90;99.90
8172;DHT22;4127;47.908;10.850;2022-09-09T03:45:06;12.80;99.90
8172;DHT22;4127;47.908;10.850;2022-09-09T03:47:33;12.80;99.90
8172;DHT22;4127;47.908;10.850;2022-09-09T03:50:00;13.00;99.90
8172;DHT22;4127;47.908;10.850;2022-09-09T03:52:27;13.00;99.90
8172;DHT22;4127;47.908;10.850;2022-09-09T03:54:55;12.80;99.90
8172;DHT22;4127;47.908;10.850;2022-09-09T03:57:23;12.90;99.90
8172;DHT22;4127;47.908;10.850;2022-09-09T03:59:49;12.90;99.90
8172;DHT22;4127;47.908;10.850;2022-09-09T04:02:16;13.20;99.90
8172;DHT22;4127;47.908;10.850;2022-09-09T04:04:43;12.90;99.90
8172;DHT22;4127;47.908;10.850;2022-09-09T04:07:09;12.90;99.90
8172;DHT22;4127;47.908;10.850;2022-09-09T04:09:38;12.90;99.90
8172;DHT22;4127;47.908;10.850;2022-09-09T04:12:05;12.90;99.90
8172;DHT22;4127;47.908;10.850;2022-09-09T04:14:32;12.90;99.90
8172;DHT22;4127;47.908;10.850;2022-09-09T04:16:59;12.90;99.90
8172;DHT22;4127;47.908;10.850;2022-09-09T04:19:26;13.00;99.90
8172;DHT22;4127;47.908;10.850;2022-09-09T04:21:53;13.10;99.90
8172;DHT22;4127;47.908;10.850;2022-09-09T04:24:20;12.90;99.90
8172;DHT22;4127;47.908;10.850;2022-09-09T04:26:48;12.90;99.90
8172;DHT22;4127;47.908;10.850;2022-09-09T04:29:14;12.90;99.90
8172;DHT22;4127;47.908;10.850;2022-09-09T04:31:41;12.90;99.90
8172;DHT22;4127;47.908;10.850;2022-09-09T04:34:09;12.90;99.90
8172;DHT22;4127;47.908;10.850;2022-09-09T04:36:36;13.10;99.90
8172;DHT22;4127;47.908;10.850;2022-09-09T04:39:02;13.10;99.90
8172;DHT22;4127;47.908;10.850;2022-09-09T04:41:29;13.10;99.90
8172;DHT22;4127;47.908;10.850;2022-09-09T04:43:57;13.00;99.90
8172;DHT22;4127;47.908;10.850;2022-09-09T04:46:25;13.20;99.90
8172;DHT22;4127;47.908;10.850;2022-09-09T04:48:52;13.00;99.90
8172;DHT22;4127;47.908;10.850;2022-09-09T04:51:19;13.10;99.90
8172;DHT22;4127;47.908;10.850;2022-09-09T04:53:46;13.10;99.90
8172;DHT22;4127;47.908;10.850;2022-09-09T04:56:15;13.30;99.90
8172;DHT22;4127;47.908;10.850;2022-09-09T04:58:43;13.30;99.90
8172;DHT22;4127;47.908;10.850;2022-09-09T05:03:37;13.50;99.90
8172;DHT22;4127;47.908;10.850;2022-09-09T05:06:06;13.50;99.90
8172;DHT22;4127;47.908;10.850;2022-09-09T05:08:39;13.60;99.90
8172;DHT22;4127;47.908;10.850;2022-09-09T05:13:49;13.70;99.90
8172;DHT22;4127;47.908;10.850;2022-09-09T05:16:17;13.70;99.90
8172;DHT22;4127;47.908;10.850;2022-09-09T05:18:45;13.50;99.90
8172;DHT22;4127;47.908;10.850;2022-09-09T05:21:17;13.60;99.90
8172;DHT22;4127;47.908;10.850;2022-09-09T05:23:45;13.40;99.90
8172;DHT22;4127;47.908;10.850;2022-09-09T05:26:16;13.60;99.90
8172;DHT22;4127;47.908;10.850;2022-09-09T05:28:45;13.50;99.90
8172;DHT22;4127;47.908;10.850;2022-09-09T05:31:13;13.80;99.90
8172;DHT22;4127;47.908;10.850;2022-09-09T05:33:41;13.40;99.90
8172;DHT22;4127;47.908;10.850;2022-09-09T05:36:12;13.40;99.90
8172;DHT22;4127;47.908;10.850;2022-09-09T05:38:42;13.40;99.90
8172;DHT22;4127;47.908;10.850;2022-09-09T05:41:10;13.40;99.90
8172;DHT22;4127;47.908;10.850;2022-09-09T05:43:38;13.40;99.90
8172;DHT22;4127;47.908;10.850;2022-09-09T05:46:07;13.40;99.90
8172;DHT22;4127;47.908;10.850;2022-09-09T05:48:39;13.50;99.90
8172;DHT22;4127;47.908;10.850;2022-09-09T05:51:08;13.60;99.90
8172;DHT22;4127;47.908;10.850;2022-09-09T05:53:36;13.70;99.90
8172;DHT22;4127;47.908;10.850;2022-09-09T05:56:08;13.80;99.90
8172;DHT22;4127;47.908;10.850;2022-09-09T05:58:37;13.80;99.90
8172;DHT22;4127;47.908;10.850;2022-09-09T06:01:07;13.90;99.90
8172;DHT22;4127;47.908;10.850;2022-09-09T06:03:35;14.00;99.90
8172;DHT22;4127;47.908;10.850;2022-09-09T06:06:05;14.10;99.90
8172;DHT22;4127;47.908;10.850;2022-09-09T06:08:33;14.40;99.90
8172;DHT22;4127;47.908;10.850;2022-09-09T06:11:05;14.70;99.90
8172;DHT22;4127;47.908;10.850;2022-09-09T06:13:32;14.90;99.90
8172;DHT22;4127;47.908;10.850;2022-09-09T06:15:59;15.10;99.90
8172;DHT22;4127;47.908;10.850;2022-09-09T06:18:26;15.00;99.90
8172;DHT22;4127;47.908;10.850;2022-09-09T06:20:57;15.10;99.90
8172;DHT22;4127;47.908;10.850;2022-09-09T06:23:25;15.10;99.90
8172;DHT22;4127;47.908;10.850;2022-09-09T06:26:00;15.20;99.90
8172;DHT22;4127;47.908;10.850;2022-09-09T06:28:27;15.30;99.90
8172;DHT22;4127;47.908;10.850;2022-09-09T06:30:58;15.40;99.90
8172;DHT22;4127;47.908;10.850;2022-09-09T06:33:25;15.40;99.90
8172;DHT22;4127;47.908;10.850;2022-09-09T06:35:53;15.50;99.90
8172;DHT22;4127;47.908;10.850;2022-09-09T06:38:20;15.50;99.90
8172;DHT22;4127;47.908;10.850;2022-09-09T06:40:56;15.50;99.90
8172;DHT22;4127;47.908;10.850;2022-09-09T06:43:27;15.50;99.90
8172;DHT22;4127;47.908;10.850;2022-09-09T06:46:04;15.40;99.90
8172;DHT22;4127;47.908;10.850;2022-09-09T06:48:31;15.50;99.90
8172;DHT22;4127;47.908;10.850;2022-09-09T06:53:33;15.40;99.90
8172;DHT22;4127;47.908;10.850;2022-09-09T06:58:44;15.30;99.90
8172;DHT22;4127;47.908;10.850;2022-09-09T07:01:13;15.20;99.90
8172;DHT22;4127;47.908;10.850;2022-09-09T07:03:41;15.30;99.90
8172;DHT22;4127;47.908;10.850;2022-09-09T07:06:20;15.30;99.90
8172;DHT22;4127;47.908;10.850;2022-09-09T07:08:52;15.30;99.90
8172;DHT22;4127;47.908;10.850;2022-09-09T07:11:24;15.30;99.90
8172;DHT22;4127;47.908;10.850;2022-09-09T07:13:52;15.20;99.90
8172;DHT22;4127;47.908;10.850;2022-09-09T07:16:21;15.30;99.90
8172;DHT22;4127;47.908;10.850;2022-09-09T07:18:50;15.40;99.90
8172;DHT22;4127;47.908;10.850;2022-09-09T07:21:18;15.30;99.90
8172;DHT22;4127;47.908;10.850;2022-09-09T07:23:45;15.40;99.90
8172;DHT22;4127;47.908;10.850;2022-09-09T07:26:16;15.30;99.90
8172;DHT22;4127;47.908;10.850;2022-09-09T07:28:46;15.30;99.90
8172;DHT22;4127;47.908;10.850;2022-09-09T07:31:21;15.40;99.90
8172;DHT22;4127;47.908;10.850;2022-09-09T07:33:48;15.40;99.90
8172;DHT22;4127;47.908;10.850;2022-09-09T07:36:20;15.40;99.90
8172;DHT22;4127;47.908;10.850;2022-09-09T07:38:51;15.40;99.90
8172;DHT22;4127;47.908;10.850;2022-09-09T07:43:50;15.50;99.90
8172;DHT22;4127;47.908;10.850;2022-09-09T07:46:18;15.70;99.90
8172;DHT22;4127;47.908;10.850;2022-09-09T07:48:50;15.80;99.90
8172;DHT22;4127;47.908;10.850;2022-09-09T07:51:29;15.80;99.90
8172;DHT22;4127;47.908;10.850;2022-09-09T07:53:58;15.90;99.90
8172;DHT22;4127;47.908;10.850;2022-09-09T07:56:27;16.00;99.90
8172;DHT22;4127;47.908;10.850;2022-09-09T07:58:55;16.00;99.90
8172;DHT22;4127;47.908;10.850;2022-09-09T08:01:28;16.10;99.90
8172;DHT22;4127;47.908;10.850;2022-09-09T08:03:57;16.10;99.90
8172;DHT22;4127;47.908;10.850;2022-09-09T08:06:32;16.10;99.90
8172;DHT22;4127;47.908;10.850;2022-09-09T08:08:59;16.10;99.90
8172;DHT22;4127;47.908;10.850;2022-09-09T08:11:28;16.20;99.90
8172;DHT22;4127;47.908;10.850;2022-09-09T08:13:56;16.10;99.90
8172;DHT22;4127;47.908;10.850;2022-09-09T08:16:30;16.20;99.90
8172;DHT22;4127;47.908;10.850;2022-09-09T08:18:58;16.20;99.90
8172;DHT22;4127;47.908;10.850;2022-09-09T08:21:27;16.20;99.90
8172;DHT22;4127;47.908;10.850;2022-09-09T08:23:56;16.30;99.90
8172;DHT22;4127;47.908;10.850;2022-09-09T08:26:32;16.30;99.90
8172;DHT22;4127;47.908;10.850;2022-09-09T08:29:01;16.50;99.90
8172;DHT22;4127;47.908;10.850;2022-09-09T08:31:31;16.60;99.90
8172;DHT22;4127;47.908;10.850;2022-09-09T08:33:59;16.80;99.90
8172;DHT22;4127;47.908;10.850;2022-09-09T08:36:28;16.80;99.90
8172;DHT22;4127;47.908;10.850;2022-09-09T08:38:57;16.70;99.90
8172;DHT22;4127;47.908;10.850;2022-09-09T08:44:37;16.70;99.90
8172;DHT22;4127;47.908;10.850;2022-09-09T08:50:18;16.70;99.90
8172;DHT22;4127;47.908;10.850;2022-09-09T08:53:19;16.70;99.90
8172;DHT22;4127;47.908;10.850;2022-09-09T08:55:51;16.70;99.90
8172;DHT22;4127;47.908;10.850;2022-09-09T08:58:25;16.70;99.90
8172;DHT22;4127;47.908;10.850;2022-09-09T09:04:05;17.10;99.90
8172;DHT22;4127;47.908;10.850;2022-09-09T09:11:56;16.80;99.90
8172;DHT22;4127;47.908;10.850;2022-09-09T09:14:31;16.70;99.90
8172;DHT22;4127;47.908;10.850;2022-09-09T09:17:03;16.70;99.90
8172;DHT22;4127;47.908;10.850;2022-09-09T09:19:33;16.60;99.90
8172;DHT22;4127;47.908;10.850;2022-09-09T09:22:22;16.60;99.90
8172;DHT22;4127;47.908;10.850;2022-09-09T09:24:57;16.60;99.90
8172;DHT22;4127;47.908;10.850;2022-09-09T09:27:34;16.70;99.90
8172;DHT22;4127;47.908;10.850;2022-09-09T09:36:16;16.70;99.90
8172;DHT22;4127;47.908;10.850;2022-09-09T09:38:55;16.80;99.90
8172;DHT22;4127;47.908;10.850;2022-09-09T09:41:43;16.80;99.90
8172;DHT22;4127;47.908;10.850;2022-09-09T09:44:39;16.80;99.90
8172;DHT22;4127;47.908;10.850;2022-09-09T09:47:07;16.80;99.90
8172;DHT22;4127;47.908;10.850;2022-09-09T09:49:34;16.80;99.90
8172;DHT22;4127;47.908;10.850;2022-09-09T09:52:05;16.80;99.90
8172;DHT22;4127;47.908;10.850;2022-09-09T09:54:39;16.90;99.90
8172;DHT22;4127;47.908;10.850;2022-09-09T09:57:13;16.90;99.90
8172;DHT22;4127;47.908;10.850;2022-09-09T09:59:41;17.00;99.90
8172;DHT22;4127;47.908;10.850;2022-09-09T10:02:13;17.00;99.90
8172;DHT22;4127;47.908;10.850;2022-09-09T10:04:40;17.00;99.90
8172;DHT22;4127;47.908;10.850;2022-09-09T10:07:21;17.00;99.90
8172;DHT22;4127;47.908;10.850;2022-09-09T10:09:53;16.90;99.90
8172;DHT22;4127;47.908;10.850;2022-09-09T10:12:33;16.90;99.90
8172;DHT22;4127;47.908;10.850;2022-09-09T10:42:47;17.60;99.90
8172;DHT22;4127;47.908;10.850;2022-09-09T10:45:18;17.60;99.90
8172;DHT22;4127;47.908;10.850;2022-09-09T10:56:11;17.30;99.90
8172;DHT22;4127;47.908;10.850;2022-09-09T10:58:44;17.20;99.90
8172;DHT22;4127;47.908;10.850;2022-09-09T11:01:22;17.20;99.90
8172;DHT22;4127;47.908;10.850;2022-09-09T11:03:56;17.20;99.90
8172;DHT22;4127;47.908;10.850;2022-09-09T11:06:32;17.00;99.90
8172;DHT22;4127;47.908;10.850;2022-09-09T11:09:02;16.90;99.90
8172;DHT22;4127;47.908;10.850;2022-09-09T11:17:55;17.00;99.90
8172;DHT22;4127;47.908;10.850;2022-09-09T11:20:23;16.90;99.90
8172;DHT22;4127;47.908;10.850;2022-09-09T11:22:58;16.90;99.90
8172;DHT22;4127;47.908;10.850;2022-09-09T11:25:35;17.00;99.90
8172;DHT22;4127;47.908;10.850;2022-09-09T11:31:33;17.30;99.90
8172;DHT22;4127;47.908;10.850;2022-09-09T11:44:39;17.50;99.90
8172;DHT22;4127;47.908;10.850;2022-09-09T11:47:29;17.40;99.90
8172;DHT22;4127;47.908;10.850;2022-09-09T11:52:43;17.50;99.90
8172;DHT22;4127;47.908;10.850;2022-09-09T11:55:29;17.50;99.90
8172;DHT22;4127;47.908;10.850;2022-09-09T12:03:01;17.70;99.90
8172;DHT22;4127;47.908;10.850;2022-09-09T12:05:42;17.70;99.90
8172;DHT22;4127;47.908;10.850;2022-09-09T12:08:15;17.70;99.90
8172;DHT22;4127;47.908;10.850;2022-09-09T12:10:55;17.60;99.90
8172;DHT22;4127;47.908;10.850;2022-09-09T12:13:24;17.80;99.90
8172;DHT22;4127;47.908;10.850;2022-09-09T12:15:54;17.90;99.90
8172;DHT22;4127;47.908;10.850;2022-09-09T12:18:35;17.90;99.90
8172;DHT22;4127;47.908;10.850;2022-09-09T12:21:07;18.00;99.90
8172;DHT22;4127;47.908;10.850;2022-09-09T12:34:47;18.40;99.90
8172;DHT22;4127;47.908;10.850;2022-09-09T12:37:37;18.50;99.90
8172;DHT22;4127;47.908;10.850;2022-09-09T12:40:18;18.70;99.90
8172;DHT22;4127;47.908;10.850;2022-09-09T12:42:45;18.80;99.90
8172;DHT22;4127;47.908;10.850;2022-09-09T12:50:35;18.80;99.90
8172;DHT22;4127;47.908;10.850;2022-09-09T12:53:16;18.90;99.90
8172;DHT22;4127;47.908;10.850;2022-09-09T12:56:08;19.00;99.60
8172;DHT22;4127;47.908;10.850;2022-09-09T12:58:37;19.00;97.60
8172;DHT22;4127;47.908;10.850;2022-09-09T13:01:05;19.00;98.10
8172;DHT22;4127;47.908;10.850;2022-09-09T13:03:33;18.90;97.70
8172;DHT22;4127;47.908;10.850;2022-09-09T13:06:17;18.90;98.30
8172;DHT22;4127;47.908;10.850;2022-09-09T13:08:45;19.00;98.00
8172;DHT22;4127;47.908;10.850;2022-09-09T13:11:22;19.00;98.60
8172;DHT22;4127;47.908;10.850;2022-09-09T13:13:56;18.90;98.80
8172;DHT22;4127;47.908;10.850;2022-09-09T13:16:26;18.80;98.10
8172;DHT22;4127;47.908;10.850;2022-09-09T13:19:01;18.80;97.80
8172;DHT22;4127;47.908;10.850;2022-09-09T13:21:41;19.00;98.70
8172;DHT22;4127;47.908;10.850;2022-09-09T13:24:29;18.90;97.60
8172;DHT22;4127;47.908;10.850;2022-09-09T13:26:58;18.90;97.60
8172;DHT22;4127;47.908;10.850;2022-09-09T13:29:25;18.90;98.60
8172;DHT22;4127;47.908;10.850;2022-09-09T13:31:53;19.00;99.60
8172;DHT22;4127;47.908;10.850;2022-09-09T13:34:31;19.00;99.50
8172;DHT22;4127;47.908;10.850;2022-09-09T13:37:05;19.10;99.30
8172;DHT22;4127;47.908;10.850;2022-09-09T13:39:36;19.00;99.30
8172;DHT22;4127;47.908;10.850;2022-09-09T13:42:04;18.90;99.90
8172;DHT22;4127;47.908;10.850;2022-09-09T13:44:36;18.80;99.90
8172;DHT22;4127;47.908;10.850;2022-09-09T13:47:27;18.70;99.90
8172;DHT22;4127;47.908;10.850;2022-09-09T13:49:52;18.70;99.90
8172;DHT22;4127;47.908;10.850;2022-09-09T13:52:19;18.60;99.90
8172;DHT22;4127;47.908;10.850;2022-09-09T13:54:50;18.60;99.90
8172;DHT22;4127;47.908;10.850;2022-09-09T13:57:24;18.60;99.90
8172;DHT22;4127;47.908;10.850;2022-09-09T13:59:54;18.40;99.90
8172;DHT22;4127;47.908;10.850;2022-09-09T14:02:36;18.50;99.90
8172;DHT22;4127;47.908;10.850;2022-09-09T14:05:05;18.50;99.90
8172;DHT22;4127;47.908;10.850;2022-09-09T14:07:32;18.50;99.90
8172;DHT22;4127;47.908;10.850;2022-09-09T14:09:59;18.40;99.90
8172;DHT22;4127;47.908;10.850;2022-09-09T14:12:27;18.60;99.90
8172;DHT22;4127;47.908;10.850;2022-09-09T14:14:53;18.70;99.90
8172;DHT22;4127;47.908;10.850;2022-09-09T14:17:20;18.90;99.90
8172;DHT22;4127;47.908;10.850;2022-09-09T14:19:48;18.90;99.90
8172;DHT22;4127;47.908;10.850;2022-09-09T14:22:15;19.00;99.90
8172;DHT22;4127;47.908;10.850;2022-09-09T14:24:42;19.00;99.90
8172;DHT22;4127;47.908;10.850;2022-09-09T14:27:09;19.00;99.90
8172;DHT22;4127;47.908;10.850;2022-09-09T14:29:35;19.00;99.90
8172;DHT22;4127;47.908;10.850;2022-09-09T14:32:02;18.90;99.90
8172;DHT22;4127;47.908;10.850;2022-09-09T14:34:29;18.70;99.90
8172;DHT22;4127;47.908;10.850;2022-09-09T14:36:56;18.50;99.90
8172;DHT22;4127;47.908;10.850;2022-09-09T14:39:23;18.30;99.90
8172;DHT22;4127;47.908;10.850;2022-09-09T14:41:50;18.30;99.90
8172;DHT22;4127;47.908;10.850;2022-09-09T14:44:16;18.40;99.90
8172;DHT22;4127;47.908;10.850;2022-09-09T14:46:43;18.40;99.90
8172;DHT22;4127;47.908;10.850;2022-09-09T14:49:11;18.50;99.90
8172;DHT22;4127;47.908;10.850;2022-09-09T14:51:39;18.40;99.90
8172;DHT22;4127;47.908;10.850;2022-09-09T14:54:05;18.40;99.90
8172;DHT22;4127;47.908;10.850;2022-09-09T14:56:33;18.30;99.90
8172;DHT22;4127;47.908;10.850;2022-09-09T14:59:03;18.50;99.90
8172;DHT22;4127;47.908;10.850;2022-09-09T15:01:31;18.60;99.90
8172;DHT22;4127;47.908;10.850;2022-09-09T15:04:00;18.80;99.90
8172;DHT22;4127;47.908;10.850;2022-09-09T15:06:30;19.30;99.90
8172;DHT22;4127;47.908;10.850;2022-09-09T15:08:58;19.50;99.90
8172;DHT22;4127;47.908;10.850;2022-09-09T15:11:30;19.50;99.90
8172;DHT22;4127;47.908;10.850;2022-09-09T15:13:58;19.70;99.90
8172;DHT22;4127;47.908;10.850;2022-09-09T15:16:27;19.60;99.80
8172;DHT22;4127;47.908;10.850;2022-09-09T15:18:56;19.50;98.40
8172;DHT22;4127;47.908;10.850;2022-09-09T15:21:25;19.40;98.10
8172;DHT22;4127;47.908;10.850;2022-09-09T15:23:52;19.30;97.50
8172;DHT22;4127;47.908;10.850;2022-09-09T15:26:19;19.30;98.30
8172;DHT22;4127;47.908;10.850;2022-09-09T15:28:47;19.50;98.20
8172;DHT22;4127;47.908;10.850;2022-09-09T15:31:21;19.40;98.00
8172;DHT22;4127;47.908;10.850;2022-09-09T15:33:52;19.40;97.00
8172;DHT22;4127;47.908;10.850;2022-09-09T15:36:20;19.30;97.90
8172;DHT22;4127;47.908;10.850;2022-09-09T15:38:47;19.10;97.60
8172;DHT22;4127;47.908;10.850;2022-09-09T15:41:15;19.20;98.00
8172;DHT22;4127;47.908;10.850;2022-09-09T15:43:47;19.20;97.30
8172;DHT22;4127;47.908;10.850;2022-09-09T15:46:39;19.10;98.00
8172;DHT22;4127;47.908;10.850;2022-09-09T15:49:18;19.00;97.80
8172;DHT22;4127;47.908;10.850;2022-09-09T15:51:47;18.90;97.00
8172;DHT22;4127;47.908;10.850;2022-09-09T15:54:16;18.90;97.40
8172;DHT22;4127;47.908;10.850;2022-09-09T15:56:45;18.90;97.60
8172;DHT22;4127;47.908;10.850;2022-09-09T15:59:12;18.90;97.10
8172;DHT22;4127;47.908;10.850;2022-09-09T16:01:41;18.80;97.60
8172;DHT22;4127;47.908;10.850;2022-09-09T16:04:09;18.80;97.70
8172;DHT22;4127;47.908;10.850;2022-09-09T16:06:36;18.80;97.80
8172;DHT22;4127;47.908;10.850;2022-09-09T16:09:05;18.90;97.80
8172;DHT22;4127;47.908;10.850;2022-09-09T16:11:35;18.80;97.60
8172;DHT22;4127;47.908;10.850;2022-09-09T16:14:02;18.80;98.00
8172;DHT22;4127;47.908;10.850;2022-09-09T16:16:30;18.70;97.70
8172;DHT22;4127;47.908;10.850;2022-09-09T16:18:59;18.50;97.40
8172;DHT22;4127;47.908;10.850;2022-09-09T16:21:29;18.40;97.50
8172;DHT22;4127;47.908;10.850;2022-09-09T16:23:58;18.30;97.80
8172;DHT22;4127;47.908;10.850;2022-09-09T16:26:30;18.30;97.80
8172;DHT22;4127;47.908;10.850;2022-09-09T16:28:59;18.30;98.40
8172;DHT22;4127;47.908;10.850;2022-09-09T16:31:27;18.30;98.30
8172;DHT22;4127;47.908;10.850;2022-09-09T16:33:54;18.30;98.60
8172;DHT22;4127;47.908;10.850;2022-09-09T16:36:23;18.30;99.10
8172;DHT22;4127;47.908;10.850;2022-09-09T16:38:55;18.30;99.20
8172;DHT22;4127;47.908;10.850;2022-09-09T16:41:24;18.20;99.40
8172;DHT22;4127;47.908;10.850;2022-09-09T16:43:59;18.20;99.40
8172;DHT22;4127;47.908;10.850;2022-09-09T16:46:27;18.10;99.10
8172;DHT22;4127;47.908;10.850;2022-09-09T16:48:57;18.00;99.10
8172;DHT22;4127;47.908;10.850;2022-09-09T16:51:27;17.90;99.00
8172;DHT22;4127;47.908;10.850;2022-09-09T16:53:55;17.90;99.00
8172;DHT22;4127;47.908;10.850;2022-09-09T16:56:25;17.90;99.20
8172;DHT22;4127;47.908;10.850;2022-09-09T16:58:55;17.80;99.50
8172;DHT22;4127;47.908;10.850;2022-09-09T17:01:23;17.70;99.90
8172;DHT22;4127;47.908;10.850;2022-09-09T17:03:54;17.60;99.90
8172;DHT22;4127;47.908;10.850;2022-09-09T17:06:27;17.50;99.90
8172;DHT22;4127;47.908;10.850;2022-09-09T17:08:56;17.40;99.90
8172;DHT22;4127;47.908;10.850;2022-09-09T17:11:24;17.20;99.90
8172;DHT22;4127;47.908;10.850;2022-09-09T17:13:52;17.20;99.90
8172;DHT22;4127;47.908;10.850;2022-09-09T17:16:20;17.00;99.90
8172;DHT22;4127;47.908;10.850;2022-09-09T17:18:51;16.90;99.90
8172;DHT22;4127;47.908;10.850;2022-09-09T17:21:20;16.70;99.90
8172;DHT22;4127;47.908;10.850;2022-09-09T17:23:47;16.70;99.90
8172;DHT22;4127;47.908;10.850;2022-09-09T17:26:17;16.60;99.90
8172;DHT22;4127;47.908;10.850;2022-09-09T17:28:45;16.50;99.90
8172;DHT22;4127;47.908;10.850;2022-09-09T17:31:14;16.30;99.90
8172;DHT22;4127;47.908;10.850;2022-09-09T17:33:43;16.20;99.90
8172;DHT22;4127;47.908;10.850;2022-09-09T17:36:39;16.10;99.90
8172;DHT22;4127;47.908;10.850;2022-09-09T17:39:05;16.10;99.90
8172;DHT22;4127;47.908;10.850;2022-09-09T17:41:37;15.90;99.90
8172;DHT22;4127;47.908;10.850;2022-09-09T17:44:05;15.90;99.90
8172;DHT22;4127;47.908;10.850;2022-09-09T17:46:38;15.80;99.90
8172;DHT22;4127;47.908;10.850;2022-09-09T17:49:09;15.80;99.90
8172;DHT22;4127;47.908;10.850;2022-09-09T17:51:36;15.70;99.90
8172;DHT22;4127;47.908;10.850;2022-09-09T17:54:09;15.60;99.90
8172;DHT22;4127;47.908;10.850;2022-09-09T17:56:37;15.50;99.90
8172;DHT22;4127;47.908;10.850;2022-09-09T17:59:06;15.40;99.90
8172;DHT22;4127;47.908;10.850;2022-09-09T18:01:35;15.20;99.90
8172;DHT22;4127;47.908;10.850;2022-09-09T18:04:04;15.10;99.90
8172;DHT22;4127;47.908;10.850;2022-09-09T18:06:34;15.00;99.90
8172;DHT22;4127;47.908;10.850;2022-09-09T18:09:04;15.00;99.90
8172;DHT22;4127;47.908;10.850;2022-09-09T18:11:33;14.90;99.90
8172;DHT22;4127;47.908;10.850;2022-09-09T18:14:02;14.80;99.90
8172;DHT22;4127;47.908;10.850;2022-09-09T18:16:31;14.70;99.90
8172;DHT22;4127;47.908;10.850;2022-09-09T18:19:03;14.60;99.90
8172;DHT22;4127;47.908;10.850;2022-09-09T18:21:31;14.50;99.90
8172;DHT22;4127;47.908;10.850;2022-09-09T18:24:00;14.40;99.90
8172;DHT22;4127;47.908;10.850;2022-09-09T18:26:28;14.40;99.90
8172;DHT22;4127;47.908;10.850;2022-09-09T18:28:59;14.30;99.90
8172;DHT22;4127;47.908;10.850;2022-09-09T18:31:27;14.20;99.90
8172;DHT22;4127;47.908;10.850;2022-09-09T18:33:56;14.30;99.90
8172;DHT22;4127;47.908;10.850;2022-09-09T18:36:35;14.10;99.90
8172;DHT22;4127;47.908;10.850;2022-09-09T18:39:04;14.00;99.90